createdAt,value
2022-09-21T00:02:09.923Z,98.57
2022-09-21T00:04:37.503Z,97.47
2022-09-21T00:07:04.895Z,99.63
2022-09-21T00:09:32.279Z,97.74
2022-09-21T00:11:59.703Z,98.12
2022-09-21T00:14:27.070Z,96.05
2022-09-21T00:16:54.704Z,95.94
2022-09-21T00:19:22.232Z,96.21
2022-09-21T00:21:50.020Z,95.08
2022-09-21T00:24:17.461Z,96.33
2022-09-21T00:26:44.961Z,95.19
2022-09-21T00:29:14.073Z,94.74
2022-09-21T00:31:41.748Z,97.52
2022-09-21T00:34:09.343Z,97.36
2022-09-21T00:36:36.749Z,97.09
2022-09-21T00:39:04.359Z,94.54
2022-09-21T00:41:32.284Z,94.47
2022-09-21T00:44:18.297Z,95.76
2022-09-21T00:46:45.975Z,96.64
2022-09-21T00:49:13.365Z,98.18
2022-09-21T00:51:41.468Z,98.26
2022-09-21T00:54:10.577Z,96.80
2022-09-21T00:56:38.388Z,99.27
2022-09-21T00:59:05.800Z,98.95
2022-09-21T01:01:33.348Z,97.93
2022-09-21T01:04:00.913Z,99.87
2022-09-21T01:06:28.284Z,99.44
2022-09-21T01:08:56.028Z,98.59
2022-09-21T01:11:26.583Z,100.00
2022-09-21T01:14:06.560Z,99.85
2022-09-21T01:16:37.112Z,99.60
2022-09-21T01:19:10.291Z,100.00
2022-09-21T01:21:41.785Z,100.00
2022-09-21T01:24:21.091Z,100.00
2022-09-21T01:26:51.531Z,100.00
2022-09-21T01:29:22.153Z,100.00
2022-09-21T01:31:51.330Z,100.00
2022-09-21T01:34:29.613Z,99.80
2022-09-21T01:36:58.083Z,100.00
2022-09-21T01:39:25.517Z,100.00
2022-09-21T01:41:52.925Z,100.00
2022-09-21T01:44:20.942Z,100.00
2022-09-21T01:46:48.743Z,100.00
2022-09-21T01:49:17.285Z,100.00
2022-09-21T01:51:46.583Z,100.00
2022-09-21T01:54:20.460Z,100.00
2022-09-21T01:57:07.515Z,100.00
2022-09-21T01:59:35.374Z,100.00
2022-09-21T02:02:05.164Z,100.00
2022-09-21T02:04:35.186Z,100.00
2022-09-21T02:07:02.675Z,100.00
2022-09-21T02:09:32.782Z,99.71
2022-09-21T02:12:02.290Z,98.93
2022-09-21T02:14:32.318Z,100.00
2022-09-21T02:17:07.609Z,100.00
2022-09-21T02:19:54.406Z,100.00
2022-09-21T02:22:33.433Z,100.00
2022-09-21T02:25:03.907Z,100.00
2022-09-21T02:27:40.520Z,100.00
2022-09-21T02:30:10.992Z,100.00
2022-09-21T02:32:46.898Z,100.00
2022-09-21T02:35:17.292Z,100.00
2022-09-21T02:37:48.957Z,100.00
2022-09-21T02:40:30.180Z,100.00
2022-09-21T02:42:59.312Z,100.00
2022-09-21T02:45:27.899Z,100.00
2022-09-21T02:47:59.466Z,100.00
2022-09-21T02:50:27.630Z,100.00
2022-09-21T02:52:55.017Z,100.00
2022-09-21T02:55:22.422Z,100.00
2022-09-21T02:57:49.788Z,100.00
2022-09-21T03:00:17.300Z,100.00
2022-09-21T03:02:45.348Z,100.00
2022-09-21T03:05:13.033Z,100.00
2022-09-21T03:07:40.553Z,100.00
2022-09-21T03:10:09.442Z,100.00
2022-09-21T03:12:37.294Z,100.00
2022-09-21T03:15:05.359Z,100.00
2022-09-21T03:17:34.976Z,100.00
2022-09-21T03:20:02.655Z,100.00
2022-09-21T03:22:30.347Z,100.00
2022-09-21T03:24:58.028Z,100.00
2022-09-21T03:27:25.690Z,100.00
2022-09-21T03:29:53.084Z,100.00
2022-09-21T03:32:20.377Z,100.00
2022-09-21T03:34:47.947Z,100.00
2022-09-21T03:37:16.234Z,100.00
2022-09-21T03:39:43.674Z,100.00
2022-09-21T03:42:12.268Z,100.00
2022-09-21T03:44:41.299Z,100.00
2022-09-21T03:47:08.687Z,100.00
2022-09-21T03:49:36.235Z,100.00
2022-09-21T03:52:03.639Z,100.00
2022-09-21T03:54:30.951Z,100.00
2022-09-21T03:56:58.306Z,100.00
2022-09-21T03:59:26.542Z,100.00
2022-09-21T04:01:53.861Z,100.00
2022-09-21T04:04:21.959Z,100.00
2022-09-21T04:06:50.311Z,100.00
2022-09-21T04:09:17.840Z,100.00
2022-09-21T04:11:46.530Z,100.00
2022-09-21T04:14:14.824Z,100.00
2022-09-21T04:16:42.637Z,100.00
2022-09-21T04:19:10.286Z,100.00
2022-09-21T04:21:38.448Z,100.00
2022-09-21T04:24:05.994Z,100.00
2022-09-21T04:26:33.980Z,100.00
2022-09-21T04:29:01.800Z,100.00
2022-09-21T04:31:29.557Z,100.00
2022-09-21T04:33:57.286Z,100.00
2022-09-21T04:36:25.455Z,100.00
2022-09-21T04:38:52.801Z,100.00
2022-09-21T04:41:20.359Z,100.00
2022-09-21T04:43:48.178Z,100.00
2022-09-21T04:46:16.197Z,100.00
2022-09-21T04:48:43.779Z,100.00
2022-09-21T04:51:11.237Z,100.00
2022-09-21T15:33:35.163Z,57.82
2022-09-21T15:36:03.042Z,58.45
2022-09-21T15:38:31.381Z,60.06
2022-09-21T15:41:03.401Z,60.08
2022-09-21T15:43:35.279Z,58.87
2022-09-21T15:46:10.142Z,60.00
2022-09-21T15:48:38.791Z,58.87
2022-09-21T15:51:07.779Z,59.11
2022-09-21T15:53:37.221Z,62.65
2022-09-21T15:56:04.865Z,65.36
2022-09-21T15:58:49.931Z,63.79
2022-09-21T16:01:20.387Z,62.30
2022-09-21T16:03:48.307Z,68.78
2022-09-21T16:06:21.806Z,68.66
2022-09-21T16:08:49.539Z,68.67
2022-09-21T16:11:26.706Z,70.66
2022-09-21T16:14:25.159Z,67.03
2022-09-21T16:17:09.558Z,65.24
2022-09-21T16:20:00.294Z,64.86
2022-09-21T16:22:48.718Z,68.74
2022-09-21T16:25:30.095Z,65.69
2022-09-21T16:27:58.870Z,65.59
2022-09-21T16:30:45.129Z,65.30
2022-09-21T16:33:31.790Z,66.59
2022-09-21T16:36:02.527Z,66.67
2022-09-21T16:38:33.733Z,66.92
2022-09-21T16:41:04.434Z,67.20
2022-09-21T16:43:32.605Z,66.36
2022-09-21T16:46:00.128Z,67.04
2022-09-21T16:48:27.855Z,66.43
2022-09-21T16:51:06.046Z,68.49
2022-09-21T16:53:33.446Z,68.98
2022-09-21T16:56:01.573Z,70.24
2022-09-21T16:58:29.463Z,69.32
2022-09-21T17:01:00.851Z,71.12
2022-09-21T17:03:31.195Z,71.21
2022-09-21T17:05:58.732Z,73.28
2022-09-21T17:08:27.898Z,74.17
2022-09-21T17:10:55.722Z,72.02
2022-09-21T17:13:23.240Z,72.46
2022-09-21T17:15:51.506Z,73.79
2022-09-21T17:18:21.256Z,72.64
2022-09-21T17:20:49.659Z,73.40
2022-09-21T17:23:17.203Z,75.00
2022-09-21T17:25:45.782Z,76.94
2022-09-21T17:28:18.166Z,75.90
2022-09-21T17:30:47.204Z,78.00
2022-09-21T17:33:14.621Z,77.94
2022-09-21T17:35:42.107Z,78.44
2022-09-21T17:38:14.161Z,77.69
2022-09-21T17:40:43.150Z,77.97
2022-09-21T17:43:14.329Z,79.69
2022-09-21T17:45:41.795Z,79.07
2022-09-21T17:48:13.610Z,80.30
2022-09-21T17:50:41.297Z,81.93
2022-09-21T17:53:27.332Z,82.88
2022-09-21T17:55:57.146Z,84.58
2022-09-21T17:58:43.039Z,82.02
2022-09-21T18:01:40.072Z,85.45
2022-09-21T18:04:08.458Z,88.02
2022-09-21T18:06:36.678Z,87.33
2022-09-21T18:09:04.406Z,85.39
2022-09-21T18:11:47.941Z,82.77
2022-09-21T18:14:31.777Z,83.66
2022-09-21T18:17:25.752Z,83.37
2022-09-21T18:19:56.522Z,82.77
2022-09-21T18:22:36.996Z,82.79
2022-09-21T18:25:12.410Z,81.03
2022-09-21T18:27:40.068Z,82.79
2022-09-21T18:30:08.059Z,83.00
2022-09-21T18:32:57.014Z,81.59
2022-09-21T18:35:43.396Z,81.07
2022-09-21T18:38:17.821Z,82.14
2022-09-21T18:40:51.193Z,80.00
2022-09-21T18:43:36.377Z,80.29
2022-09-21T18:46:04.957Z,80.99
2022-09-21T18:48:32.414Z,80.30
2022-09-21T18:51:05.917Z,80.71
2022-09-21T18:54:05.970Z,80.45
2022-09-21T18:56:35.955Z,79.91
2022-09-21T18:59:04.116Z,79.76
2022-09-21T19:01:34.100Z,79.65
2022-09-21T19:04:02.035Z,81.14
2022-09-21T19:06:29.478Z,81.15
2022-09-21T19:09:00.236Z,82.17
2022-09-21T19:11:32.446Z,83.52
2022-09-21T19:14:01.890Z,83.17
2022-09-21T19:16:33.711Z,84.42
2022-09-21T19:19:04.886Z,82.32
2022-09-21T19:21:52.715Z,83.46
2022-09-21T19:24:24.065Z,83.48
2022-09-21T19:27:11.810Z,84.29
2022-09-21T19:29:45.785Z,84.67
2022-09-21T19:32:17.560Z,84.69
2022-09-21T19:34:45.311Z,85.25
2022-09-21T19:37:12.715Z,88.05
2022-09-21T19:39:40.800Z,85.36
2022-09-21T19:42:11.589Z,85.34
2022-09-21T19:44:46.168Z,85.01
2022-09-21T19:47:25.712Z,85.11
2022-09-21T19:49:56.658Z,85.40
2022-09-21T19:52:30.488Z,86.50
2022-09-21T19:55:16.769Z,85.30
2022-09-21T19:58:03.487Z,87.18
2022-09-21T20:00:32.965Z,87.62
2022-09-21T20:03:11.225Z,87.59
2022-09-21T20:06:00.058Z,88.99
2022-09-21T20:08:33.812Z,90.54
2022-09-21T20:11:11.528Z,92.34
2022-09-21T20:14:00.270Z,94.41
2022-09-21T20:16:27.908Z,94.98
2022-09-21T20:19:08.327Z,95.96
2022-09-21T20:21:39.789Z,96.94
2022-09-21T20:24:26.647Z,97.91
2022-09-21T20:26:55.859Z,99.50
2022-09-21T20:29:23.315Z,99.02
2022-09-21T20:31:52.398Z,99.24
2022-09-21T20:34:20.040Z,95.14
2022-09-21T20:36:47.696Z,97.17
2022-09-21T20:39:17.568Z,96.12
2022-09-21T20:41:45.554Z,92.91
2022-09-21T20:44:13.669Z,92.08
2022-09-21T20:46:43.190Z,95.88
2022-09-21T20:49:11.731Z,98.95
2022-09-21T20:51:39.413Z,95.38
2022-09-21T20:54:07.300Z,94.75
2022-09-21T20:56:34.929Z,97.97
2022-09-21T20:59:02.488Z,99.52
2022-09-21T21:01:29.924Z,99.64
2022-09-21T21:04:03.657Z,99.94
2022-09-21T21:06:31.615Z,97.44
2022-09-21T21:08:59.063Z,98.25
2022-09-21T21:11:28.376Z,98.97
2022-09-21T21:13:56.434Z,100.00
2022-09-21T21:16:24.156Z,100.00
2022-09-21T21:18:51.489Z,100.00
2022-09-21T21:21:18.908Z,100.00
2022-09-21T21:24:09.633Z,100.00
2022-09-21T21:27:00.694Z,100.00
2022-09-21T21:29:25.763Z,100.00
2022-09-21T21:31:56.199Z,100.00
2022-09-21T21:34:23.900Z,100.00
2022-09-21T21:36:51.312Z,100.00
2022-09-21T21:39:18.779Z,100.00
2022-09-21T21:41:46.756Z,100.00
2022-09-21T21:44:15.290Z,100.00
2022-09-21T21:46:42.911Z,100.00
2022-09-21T21:49:10.336Z,100.00
2022-09-21T21:51:38.297Z,100.00
2022-09-21T21:54:05.761Z,100.00
2022-09-21T21:56:34.087Z,100.00
2022-09-21T21:59:01.648Z,100.00
2022-09-21T22:01:29.813Z,100.00
2022-09-21T22:03:57.964Z,100.00
2022-09-21T22:06:25.514Z,100.00
2022-09-21T22:08:53.153Z,100.00
2022-09-21T22:11:21.393Z,100.00
2022-09-21T22:13:49.305Z,100.00
2022-09-21T22:16:17.826Z,100.00
2022-09-21T22:18:46.355Z,100.00
2022-09-21T22:21:14.835Z,100.00
2022-09-21T22:23:42.351Z,100.00
2022-09-21T22:26:14.225Z,100.00
2022-09-21T22:28:43.757Z,100.00
2022-09-21T22:31:12.599Z,100.00
2022-09-21T22:33:39.941Z,100.00
2022-09-21T22:36:08.212Z,100.00
2022-09-21T22:38:40.443Z,100.00
2022-09-21T22:41:11.645Z,100.00
2022-09-21T22:43:39.515Z,100.00
2022-09-21T22:46:07.026Z,100.00
2022-09-21T22:48:35.305Z,100.00
2022-09-21T22:51:02.718Z,100.00
2022-09-21T22:53:31.025Z,100.00
2022-09-21T22:56:09.738Z,100.00
2022-09-21T22:58:41.261Z,100.00
2022-09-21T23:01:11.753Z,100.00
2022-09-21T23:03:39.595Z,100.00
2022-09-21T23:06:07.582Z,100.00
2022-09-21T23:08:35.239Z,100.00
2022-09-21T23:11:06.737Z,100.00
2022-09-21T23:13:35.110Z,100.00
2022-09-21T23:16:04.128Z,100.00
2022-09-21T23:18:31.883Z,100.00
2022-09-21T23:21:00.642Z,100.00
2022-09-21T23:23:28.376Z,100.00
2022-09-21T23:26:02.526Z,100.00
2022-09-21T23:28:30.081Z,100.00
2022-09-21T23:30:58.150Z,100.00
2022-09-21T23:33:29.427Z,100.00
2022-09-21T23:35:57.083Z,100.00
2022-09-21T23:38:24.484Z,100.00
2022-09-21T23:40:51.844Z,100.00
2022-09-21T23:43:19.379Z,100.00
2022-09-21T23:45:46.731Z,100.00
2022-09-21T23:48:14.181Z,100.00
2022-09-21T23:50:43.164Z,100.00
2022-09-21T23:53:10.542Z,100.00
2022-09-21T23:55:39.387Z,100.00
2022-09-21T23:58:07.260Z,100.00
